Abadia dos Dourados, Brazil
Current Conditions -  °F | °C
As of 11:00 PM on Tuesday 25 Nov 2014 (Local Time) from SBUL Reporting Station
Broken Clouds Broken Clouds  
Wind Chill: 68°   Ceiling: 300
Heat Index: 68°   Visibility: 6mi
Dew Point: 66°   Wind: 7mph
Humidity: 94%   Direction: 340°NNW
Pressure: 30"   Gusts: NA
Location:  18.49°S, 47.4°W
Report Text: SBUL 260100Z 34006KT 9999 SCT002 BKN003 20/19 Q1016
Loading
Personal Weather Stations






























Interactive Weather Map New forecast layout! Learn more

10-Day Weather Forecast

Advertisements
Track Severe Weather on mobile